Time;durP1;ratioP1;P1;durP2;ratioP2;P2;SDS_P1;SDS_P2;PMS_P1;PMS_P2;Temp;Humidity;BMP_temperature;BMP_pressure;BME280_temperature;BME280_humidity;BME280_pressure;Samples;Min_cycle;Max_cycle;Signal;HPM_P1;HPM_P2
2022/10/04 00:00:32;;;;;;;9.03;5.93;;;;;;;;;;629585;23;1232;-61
2022/10/04 00:00:48;;;;;;;9.55;5.75;;;;;;;;;;623935;23;1140;-62
2022/10/04 00:01:12;;;;;;;9.90;5.43;;;;;;;;;;627247;23;1091;-62
2022/10/04 00:01:30;;;;;;;9.35;5.50;;;;;;;;;;632171;23;949;-62
2022/10/04 00:02:18;;;;;;;10.38;5.70;;;;;;;;;;633313;23;894;-62
2022/10/04 00:02:34;;;;;;;10.70;5.70;;;;;;;;;;635983;23;838;-62
2022/10/04 00:02:51;;;;;;;8.75;5.22;;;;;;;;;;635762;23;1016;-63
2022/10/04 00:03:15;;;;;;;8.25;5.10;;;;;;;;;;636399;23;1021;-62
2022/10/04 00:03:43;;;;;;;8.80;5.00;;;;;;;;;;637075;23;1005;-62
2022/10/04 00:04:12;;;;;;;11.35;6.00;;;;;;;;;;636260;23;1219;-62
2022/10/04 00:04:29;;;;;;;9.65;5.35;;;;;;;;;;635252;23;972;-62
2022/10/04 00:04:58;;;;;;;9.25;5.00;;;;;;;;;;633016;23;919;-63
2022/10/04 00:05:17;;;;;;;11.50;5.80;;;;;;;;;;634297;23;898;-62
2022/10/04 00:05:33;;;;;;;9.15;5.32;;;;;;;;;;630784;23;899;-63
2022/10/04 00:05:53;;;;;;;8.77;5.55;;;;;;;;;;631365;23;1075;-62
2022/10/04 00:06:15;;;;;;;11.07;5.88;;;;;;;;;;629557;23;942;-63
2022/10/04 00:06:31;;;;;;;9.35;5.28;;;;;;;;;;630941;23;1018;-63
2022/10/04 00:07:02;;;;;;;10.60;5.20;;;;;;;;;;632226;23;910;-62
2022/10/04 00:07:23;;;;;;;10.13;5.20;;;;;;;;;;630721;23;935;-62
2022/10/04 00:07:48;;;;;;;10.43;5.63;;;;;;;;;;630205;23;1146;-63
2022/10/04 00:08:20;;;;;;;10.43;6.18;;;;;;;;;;628564;23;1422;-63
2022/10/04 00:08:52;;;;;;;10.88;6.53;;;;;;;;;;627297;23;1646;-62
2022/10/04 00:09:15;;;;;;;11.73;6.60;;;;;;;;;;623834;23;2161;-63
2022/10/04 00:09:48;;;;;;;13.25;10.75;;;;;;;;;;628512;23;1323;-62
2022/10/04 00:10:14;;;;;;;11.93;9.35;;;;;;;;;;627764;23;2078;-62
2022/10/04 00:10:32;;;;;;;10.23;7.07;;;;;;;;;;629332;23;998;-63
2022/10/04 00:10:48;;;;;;;8.70;6.10;;;;;;;;;;630582;23;879;-63
2022/10/04 00:11:14;;;;;;;8.37;5.77;;;;;;;;;;630147;23;1013;-63
2022/10/04 00:11:34;;;;;;;7.93;5.70;;;;;;;;;;629117;23;968;-62
2022/10/04 00:11:53;;;;;;;8.27;6.00;;;;;;;;;;630805;23;991;-62
2022/10/04 00:12:21;;;;;;;9.57;6.10;;;;;;;;;;633337;23;1003;-62
2022/10/04 00:12:47;;;;;;;10.77;6.93;;;;;;;;;;633874;23;954;-62
2022/10/04 00:13:16;;;;;;;10.45;6.40;;;;;;;;;;635371;23;949;-63
2022/10/04 00:13:33;;;;;;;11.20;6.43;;;;;;;;;;637055;23;1034;-63
2022/10/04 00:13:55;;;;;;;9.60;5.78;;;;;;;;;;636328;23;979;-63
2022/10/04 00:14:23;;;;;;;9.10;5.80;;;;;;;;;;636317;23;1010;-62
2022/10/04 00:14:42;;;;;;;9.23;5.22;;;;;;;;;;636730;23;1965;-63
2022/10/04 00:15:01;;;;;;;7.38;5.15;;;;;;;;;;635694;23;974;-62
2022/10/04 00:15:24;;;;;;;7.57;5.78;;;;;;;;;;636522;23;878;-63
2022/10/04 00:15:40;;;;;;;10.15;6.20;;;;;;;;;;636297;23;949;-63
2022/10/04 00:15:55;;;;;;;10.13;5.78;;;;;;;;;;636265;23;1092;-63
2022/10/04 00:16:25;;;;;;;9.15;5.40;;;;;;;;;;636305;23;977;-62
2022/10/04 00:16:42;;;;;;;8.57;5.10;;;;;;;;;;636881;23;1150;-62
2022/10/04 00:16:59;;;;;;;8.38;4.82;;;;;;;;;;636759;23;870;-62
2022/10/04 00:17:22;;;;;;;9.95;5.45;;;;;;;;;;635643;23;930;-62
2022/10/04 00:17:37;;;;;;;8.63;5.13;;;;;;;;;;636531;23;945;-62
2022/10/04 00:18:11;;;;;;;6.93;4.80;;;;;;;;;;635899;23;1059;-63
2022/10/04 00:18:43;;;;;;;8.10;4.60;;;;;;;;;;633698;23;1228;-62
2022/10/04 00:19:20;;;;;;;9.55;5.00;;;;;;;;;;630500;23;962;-63
2022/10/04 00:19:43;;;;;;;8.90;4.60;;;;;;;;;;628029;23;1315;-63
2022/10/04 00:19:59;;;;;;;11.70;5.57;;;;;;;;;;629407;23;922;-63
2022/10/04 00:20:52;;;;;;;11.10;5.40;;;;;;;;;;631215;23;979;-62
2022/10/04 00:21:07;;;;;;;8.38;5.15;;;;;;;;;;636826;23;893;-62
2022/10/04 00:21:23;;;;;;;9.07;4.93;;;;;;;;;;633205;23;1322;-62
2022/10/04 00:21:51;;;;;;;8.23;4.77;;;;;;;;;;635948;23;1012;-63
2022/10/04 00:22:09;;;;;;;11.57;4.88;;;;;;;;;;636211;23;1958;-62
2022/10/04 00:22:28;;;;;;;9.77;5.15;;;;;;;;;;633957;23;1418;-63
2022/10/04 00:23:22;;;;;;;7.10;5.00;;;;;;;;;;634026;23;866;-63
2022/10/04 00:23:37;;;;;;;12.18;5.20;;;;;;;;;;632667;23;1219;-62
2022/10/04 00:24:09;;;;;;;11.53;5.30;;;;;;;;;;633631;23;836;-62
2022/10/04 00:24:29;;;;;;;10.48;5.80;;;;;;;;;;636624;23;988;-62
2022/10/04 00:25:05;;;;;;;9.98;5.85;;;;;;;;;;637197;23;966;-62
2022/10/04 00:25:33;;;;;;;9.80;5.57;;;;;;;;;;636964;23;854;-62
2022/10/04 00:25:58;;;;;;;12.27;5.88;;;;;;;;;;635718;23;900;-63
2022/10/04 00:26:42;;;;;;;11.20;6.00;;;;;;;;;;636097;23;937;-63
2022/10/04 00:27:20;;;;;;;12.05;5.93;;;;;;;;;;636926;23;1798;-63
2022/10/04 00:27:38;;;;;;;10.27;5.78;;;;;;;;;;633839;23;1366;-62
2022/10/04 00:28:15;;;;;;;9.23;5.43;;;;;;;;;;632833;23;832;-63
2022/10/04 00:28:38;;;;;;;8.13;5.80;;;;;;;;;;635267;23;871;-62
2022/10/04 00:28:54;;;;;;;9.48;5.85;;;;;;;;;;637158;23;1040;-63
2022/10/04 00:29:33;;;;;;;8.13;5.50;;;;;;;;;;634619;23;976;-62
2022/10/04 00:30:01;;;;;;;9.20;5.72;;;;;;;;;;636339;23;1148;-63
2022/10/04 00:30:22;;;;;;;9.38;5.85;;;;;;;;;;636934;23;897;-62
2022/10/04 00:30:37;;;;;;;9.30;5.90;;;;;;;;;;635914;23;1027;-63
2022/10/04 00:31:11;;;;;;;11.67;5.80;;;;;;;;;;636910;23;1163;-63
2022/10/04 00:31:27;;;;;;;10.07;5.63;;;;;;;;;;637181;23;992;-62
2022/10/04 00:32:15;;;;;;;10.02;5.88;;;;;;;;;;636098;23;870;-62
2022/10/04 00:32:39;;;;;;;9.88;5.90;;;;;;;;;;636804;23;1049;-62
2022/10/04 00:33:03;;;;;;;7.72;5.60;;;;;;;;;;637389;23;861;-62
2022/10/04 00:34:17;;;;;;;9.07;5.93;;;;;;;;;;636942;23;984;-62
2022/10/04 00:34:35;;;;;;;9.50;5.72;;;;;;;;;;624366;23;912;-63
2022/10/04 00:34:52;;;;;;;9.20;5.30;;;;;;;;;;623394;23;1075;-62
2022/10/04 00:35:25;;;;;;;8.82;5.50;;;;;;;;;;624613;23;1037;-63
2022/10/04 00:35:43;;;;;;;9.25;5.65;;;;;;;;;;623949;23;1085;-62
2022/10/04 00:35:58;;;;;;;7.07;5.32;;;;;;;;;;623663;23;1450;-62
2022/10/04 00:36:23;;;;;;;11.32;5.38;;;;;;;;;;624189;23;1163;-62
2022/10/04 00:36:51;;;;;;;10.35;5.40;;;;;;;;;;624725;23;914;-62
2022/10/04 00:37:13;;;;;;;11.18;5.90;;;;;;;;;;624833;23;829;-62
2022/10/04 00:37:58;;;;;;;7.50;5.50;;;;;;;;;;621555;23;1190;-62
2022/10/04 00:38:15;;;;;;;9.20;6.03;;;;;;;;;;624374;23;1144;-63
2022/10/04 00:38:30;;;;;;;8.65;5.97;;;;;;;;;;624047;23;820;-63
2022/10/04 00:39:03;;;;;;;8.45;5.88;;;;;;;;;;624687;23;963;-62
2022/10/04 00:39:37;;;;;;;11.02;6.03;;;;;;;;;;624935;23;888;-62
2022/10/04 00:40:01;;;;;;;12.95;6.45;;;;;;;;;;627061;23;864;-62
2022/10/04 00:40:19;;;;;;;8.82;6.00;;;;;;;;;;626212;23;1093;-62
2022/10/04 00:40:37;;;;;;;9.50;6.00;;;;;;;;;;624804;23;1415;-62
2022/10/04 00:41:04;;;;;;;11.00;6.40;;;;;;;;;;624823;23;953;-62
2022/10/04 00:41:20;;;;;;;11.27;6.55;;;;;;;;;;623633;23;1360;-63
2022/10/04 00:41:53;;;;;;;9.60;6.47;;;;;;;;;;624837;23;1068;-63
2022/10/04 00:42:20;;;;;;;9.55;6.35;;;;;;;;;;624288;23;1941;-62
2022/10/04 00:42:45;;;;;;;11.82;6.40;;;;;;;;;;623539;23;1011;-62
2022/10/04 00:43:07;;;;;;;11.73;6.07;;;;;;;;;;623639;23;1005;-62
2022/10/04 00:43:36;;;;;;;12.20;6.15;;;;;;;;;;623908;23;1380;-62
2022/10/04 00:43:53;;;;;;;13.40;6.00;;;;;;;;;;623860;23;1219;-62
2022/10/04 00:44:18;;;;;;;9.80;6.25;;;;;;;;;;624140;23;975;-63
2022/10/04 00:44:41;;;;;;;10.35;5.90;;;;;;;;;;621794;23;1508;-62
2022/10/04 00:45:02;;;;;;;8.80;6.10;;;;;;;;;;621462;23;856;-62
2022/10/04 00:45:32;;;;;;;9.55;5.97;;;;;;;;;;622362;23;1252;-63
2022/10/04 00:45:54;;;;;;;11.30;6.13;;;;;;;;;;624891;23;868;-63
2022/10/04 00:46:19;;;;;;;10.13;6.25;;;;;;;;;;623790;23;871;-62
2022/10/04 00:46:38;;;;;;;8.30;6.30;;;;;;;;;;625955;23;882;-62
2022/10/04 00:46:56;;;;;;;10.60;6.15;;;;;;;;;;627707;23;1042;-62
2022/10/04 00:47:20;;;;;;;10.17;6.37;;;;;;;;;;623857;23;1866;-63
2022/10/04 00:47:45;;;;;;;9.60;6.30;;;;;;;;;;621467;23;1072;-62
2022/10/04 00:48:09;;;;;;;8.93;5.70;;;;;;;;;;621580;23;1027;-62
2022/10/04 00:48:30;;;;;;;10.65;5.57;;;;;;;;;;621467;23;1019;-62
2022/10/04 00:48:53;;;;;;;8.32;5.57;;;;;;;;;;621227;23;895;-62
2022/10/04 00:49:12;;;;;;;9.18;5.70;;;;;;;;;;622791;23;2091;-62
2022/10/04 00:49:34;;;;;;;7.55;5.80;;;;;;;;;;625713;23;822;-62
2022/10/04 00:49:55;;;;;;;8.15;5.88;;;;;;;;;;624654;23;1179;-62
2022/10/04 00:50:16;;;;;;;6.72;5.45;;;;;;;;;;624382;23;928;-62
2022/10/04 00:50:37;;;;;;;6.75;5.28;;;;;;;;;;624476;23;970;-63
2022/10/04 00:51:17;;;;;;;8.10;5.38;;;;;;;;;;624413;23;983;-62
2022/10/04 00:51:58;;;;;;;8.20;5.30;;;;;;;;;;624636;23;903;-62
2022/10/04 00:52:19;;;;;;;8.90;5.72;;;;;;;;;;626670;23;1002;-62
2022/10/04 00:52:39;;;;;;;8.30;5.60;;;;;;;;;;627558;23;851;-63
2022/10/04 00:52:57;;;;;;;9.05;6.00;;;;;;;;;;627385;23;1030;-62
2022/10/04 00:53:22;;;;;;;9.27;5.97;;;;;;;;;;627885;23;1022;-62
2022/10/04 00:53:47;;;;;;;9.55;5.82;;;;;;;;;;624796;23;951;-62
2022/10/04 00:54:22;;;;;;;8.40;6.00;;;;;;;;;;623993;23;928;-63
2022/10/04 00:54:43;;;;;;;6.80;5.43;;;;;;;;;;623441;23;915;-62
2022/10/04 00:55:04;;;;;;;9.30;5.93;;;;;;;;;;623279;23;1073;-63
2022/10/04 00:55:28;;;;;;;10.18;6.10;;;;;;;;;;624884;23;837;-62
2022/10/04 00:55:51;;;;;;;10.95;6.20;;;;;;;;;;626696;23;866;-63
2022/10/04 00:56:13;;;;;;;9.15;5.72;;;;;;;;;;627368;23;911;-63
2022/10/04 00:56:36;;;;;;;8.55;5.75;;;;;;;;;;623810;23;1646;-62
2022/10/04 00:56:59;;;;;;;9.45;6.07;;;;;;;;;;624182;23;856;-63
2022/10/04 00:57:26;;;;;;;9.38;6.40;;;;;;;;;;624203;23;1340;-62
2022/10/04 00:57:45;;;;;;;10.18;6.55;;;;;;;;;;623938;23;1207;-62
2022/10/04 00:58:06;;;;;;;9.10;6.30;;;;;;;;;;624430;23;983;-62
2022/10/04 00:58:29;;;;;;;9.52;6.43;;;;;;;;;;622485;23;1019;-62
2022/10/04 00:58:53;;;;;;;11.05;6.30;;;;;;;;;;622950;23;1112;-63
2022/10/04 00:59:16;;;;;;;10.30;6.70;;;;;;;;;;620203;23;990;-62
2022/10/04 00:59:43;;;;;;;10.38;6.53;;;;;;;;;;620731;23;1069;-62
2022/10/04 01:00:18;;;;;;;9.07;6.35;;;;;;;;;;617059;23;959;-62
2022/10/04 01:00:35;;;;;;;7.88;6.05;;;;;;;;;;622157;23;927;-63
2022/10/04 01:00:52;;;;;;;9.52;6.35;;;;;;;;;;620859;23;1249;-62
2022/10/04 01:01:08;;;;;;;11.73;6.70;;;;;;;;;;615317;24;975;-62
2022/10/04 01:01:26;;;;;;;11.82;6.57;;;;;;;;;;615674;24;1004;-62
2022/10/04 01:01:46;;;;;;;10.55;6.50;;;;;;;;;;615944;24;1262;-62
2022/10/04 01:02:16;;;;;;;11.88;6.53;;;;;;;;;;618205;23;1964;-62
2022/10/04 01:02:49;;;;;;;9.18;6.68;;;;;;;;;;617575;23;1336;-63
2022/10/04 01:03:15;;;;;;;9.45;6.72;;;;;;;;;;626010;23;847;-63
2022/10/04 01:03:37;;;;;;;9.38;6.88;;;;;;;;;;623906;23;1441;-63
2022/10/04 01:03:55;;;;;;;8.23;7.03;;;;;;;;;;624714;23;1034;-63
2022/10/04 01:04:27;;;;;;;9.35;6.72;;;;;;;;;;620146;23;1249;-62
2022/10/04 01:04:56;;;;;;;10.73;6.78;;;;;;;;;;621705;23;926;-62
2022/10/04 01:05:16;;;;;;;11.32;6.30;;;;;;;;;;621423;23;979;-62
2022/10/04 01:05:39;;;;;;;9.30;6.22;;;;;;;;;;621195;23;1368;-62
2022/10/04 01:05:59;;;;;;;8.57;6.25;;;;;;;;;;621309;23;966;-63
2022/10/04 01:06:15;;;;;;;9.10;6.20;;;;;;;;;;624419;23;1095;-62
2022/10/04 01:06:33;;;;;;;8.60;6.18;;;;;;;;;;620844;23;1355;-62
2022/10/04 01:06:50;;;;;;;27.15;7.20;;;;;;;;;;621832;23;924;-62
2022/10/04 01:07:07;;;;;;;37.63;7.55;;;;;;;;;;621201;23;1066;-62
2022/10/04 01:07:43;;;;;;;23.80;7.00;;;;;;;;;;618872;23;1260;-62
2022/10/04 01:08:12;;;;;;;35.30;7.47;;;;;;;;;;618014;23;1365;-62
2022/10/04 01:08:37;;;;;;;39.85;7.25;;;;;;;;;;619417;23;1074;-63
2022/10/04 01:08:55;;;;;;;17.05;6.75;;;;;;;;;;621429;23;923;-62
2022/10/04 01:09:11;;;;;;;21.08;6.90;;;;;;;;;;621397;23;908;-63
2022/10/04 01:09:31;;;;;;;26.90;7.32;;;;;;;;;;632243;23;1236;-63
2022/10/04 01:09:58;;;;;;;24.58;7.30;;;;;;;;;;633524;23;1244;-62
2022/10/04 01:10:25;;;;;;;22.17;7.20;;;;;;;;;;636462;23;965;-62
2022/10/04 01:10:47;;;;;;;25.48;7.47;;;;;;;;;;635807;23;905;-62
2022/10/04 01:11:09;;;;;;;16.88;7.30;;;;;;;;;;637179;23;887;-63
2022/10/04 01:11:29;;;;;;;10.98;7.35;;;;;;;;;;636843;23;1106;-62
2022/10/04 01:11:55;;;;;;;9.75;7.68;;;;;;;;;;636997;23;1198;-62
2022/10/04 01:12:24;;;;;;;9.57;7.60;;;;;;;;;;637009;23;1331;-62
2022/10/04 01:12:59;;;;;;;11.73;7.63;;;;;;;;;;637146;23;845;-63
2022/10/04 01:13:20;;;;;;;12.60;7.70;;;;;;;;;;636241;23;1001;-62
2022/10/04 01:13:49;;;;;;;15.98;8.00;;;;;;;;;;636000;23;934;-62
2022/10/04 01:14:18;;;;;;;17.95;7.93;;;;;;;;;;636604;23;874;-62
2022/10/04 01:14:39;;;;;;;11.02;8.07;;;;;;;;;;636586;23;947;-62
2022/10/04 01:15:35;;;;;;;17.92;8.48;;;;;;;;;;637335;23;1134;-62
2022/10/04 01:16:19;;;;;;;16.75;8.48;;;;;;;;;;635629;23;1223;-63
2022/10/04 01:16:36;;;;;;;13.32;8.43;;;;;;;;;;636556;23;988;-63
2022/10/04 01:16:52;;;;;;;11.18;8.20;;;;;;;;;;636742;23;1216;-63
2022/10/04 01:17:08;;;;;;;14.27;8.27;;;;;;;;;;636750;23;858;-62
2022/10/04 01:17:24;;;;;;;15.43;8.45;;;;;;;;;;632509;23;1518;-62
2022/10/04 01:17:39;;;;;;;10.93;8.20;;;;;;;;;;633765;23;841;-62
2022/10/04 01:18:19;;;;;;;11.05;8.23;;;;;;;;;;630556;23;831;-62
2022/10/04 01:18:35;;;;;;;11.40;7.57;;;;;;;;;;632983;23;893;-62
2022/10/04 01:18:51;;;;;;;13.32;8.00;;;;;;;;;;629725;23;1189;-63
2022/10/04 01:19:22;;;;;;;11.33;7.80;;;;;;;;;;626953;23;1240;-63
2022/10/04 01:19:40;;;;;;;11.20;7.75;;;;;;;;;;630712;23;914;-63
2022/10/04 01:19:55;;;;;;;9.32;7.10;;;;;;;;;;632853;23;905;-63
2022/10/04 01:20:35;;;;;;;8.85;6.65;;;;;;;;;;630313;23;1276;-62
2022/10/04 01:21:07;;;;;;;11.93;6.60;;;;;;;;;;634070;23;850;-62
2022/10/04 01:21:28;;;;;;;8.55;6.60;;;;;;;;;;636039;23;961;-62
2022/10/04 01:21:45;;;;;;;9.18;7.07;;;;;;;;;;636363;23;1036;-62
2022/10/04 01:22:04;;;;;;;14.65;7.60;;;;;;;;;;636273;23;1937;-62
2022/10/04 01:22:40;;;;;;;18.48;7.72;;;;;;;;;;637023;23;1525;-62
2022/10/04 01:22:55;;;;;;;13.27;7.22;;;;;;;;;;636311;23;903;-62
2022/10/04 01:23:40;;;;;;;13.43;6.80;;;;;;;;;;636748;23;984;-62
2022/10/04 01:23:58;;;;;;;11.90;6.78;;;;;;;;;;636745;23;1251;-62
2022/10/04 01:24:21;;;;;;;14.07;7.13;;;;;;;;;;636455;23;990;-62
2022/10/04 01:24:43;;;;;;;29.48;7.45;;;;;;;;;;636559;23;926;-62
2022/10/04 01:24:59;;;;;;;13.38;7.00;;;;;;;;;;636936;23;886;-62
2022/10/04 01:25:44;;;;;;;15.03;7.23;;;;;;;;;;636710;23;822;-63
2022/10/04 01:26:03;;;;;;;10.88;6.90;;;;;;;;;;636379;23;888;-62
2022/10/04 01:26:34;;;;;;;9.73;6.78;;;;;;;;;;636853;23;873;-62
2022/10/04 01:26:49;;;;;;;17.67;7.35;;;;;;;;;;635773;23;1060;-62
2022/10/04 01:27:36;;;;;;;19.20;7.32;;;;;;;;;;634165;23;1459;-63
2022/10/04 01:27:51;;;;;;;16.85;7.47;;;;;;;;;;629468;23;1304;-62
2022/10/04 01:28:07;;;;;;;12.90;7.30;;;;;;;;;;628296;23;1288;-62
2022/10/04 01:28:22;;;;;;;16.37;7.50;;;;;;;;;;627774;23;973;-62
2022/10/04 01:28:38;;;;;;;23.15;7.97;;;;;;;;;;628050;23;922;-62
2022/10/04 01:28:59;;;;;;;18.30;7.38;;;;;;;;;;630059;23;934;-63
2022/10/04 01:29:34;;;;;;;13.75;7.13;;;;;;;;;;633498;23;1401;-62
2022/10/04 01:29:50;;;;;;;12.60;6.90;;;;;;;;;;635995;23;1170;-62
2022/10/04 01:30:15;;;;;;;14.07;6.97;;;;;;;;;;635998;23;1230;-63
2022/10/04 01:30:30;;;;;;;16.02;7.40;;;;;;;;;;636658;23;1017;-62
2022/10/04 01:30:45;;;;;;;17.30;7.45;;;;;;;;;;635996;23;974;-62
2022/10/04 01:31:01;;;;;;;19.50;7.13;;;;;;;;;;636216;23;942;-62
2022/10/04 01:31:16;;;;;;;21.97;6.90;;;;;;;;;;634131;23;1204;-62
2022/10/04 01:31:36;;;;;;;18.15;6.63;;;;;;;;;;633953;23;1061;-63
2022/10/04 01:31:53;;;;;;;21.08;6.55;;;;;;;;;;633059;23;850;-62
2022/10/04 01:32:08;;;;;;;23.70;6.68;;;;;;;;;;633606;23;1409;-62
2022/10/04 01:32:24;;;;;;;26.60;6.93;;;;;;;;;;635043;23;1117;-62
2022/10/04 01:32:40;;;;;;;31.17;7.28;;;;;;;;;;635389;23;917;-62
2022/10/04 01:32:55;;;;;;;25.73;7.07;;;;;;;;;;636963;23;905;-62
2022/10/04 01:33:11;;;;;;;23.20;6.83;;;;;;;;;;634884;23;1493;-62
2022/10/04 01:33:27;;;;;;;24.27;7.05;;;;;;;;;;637183;23;933;-63
2022/10/04 01:33:42;;;;;;;22.77;6.90;;;;;;;;;;635991;23;881;-62
2022/10/04 01:33:58;;;;;;;14.85;6.82;;;;;;;;;;637080;23;962;-62
2022/10/04 01:34:18;;;;;;;16.88;6.93;;;;;;;;;;635758;23;934;-62
2022/10/04 01:34:34;;;;;;;30.80;7.10;;;;;;;;;;636032;23;898;-63
2022/10/04 01:34:49;;;;;;;26.30;6.97;;;;;;;;;;636928;23;945;-62
2022/10/04 01:35:10;;;;;;;20.53;6.67;;;;;;;;;;632026;23;1691;-63
2022/10/04 01:35:27;;;;;;;47.28;7.10;;;;;;;;;;633097;23;1256;-62
2022/10/04 01:35:43;;;;;;;38.55;6.90;;;;;;;;;;633214;23;871;-63
2022/10/04 01:35:59;;;;;;;23.98;6.70;;;;;;;;;;634119;23;999;-62
2022/10/04 01:36:14;;;;;;;16.73;6.63;;;;;;;;;;633321;23;901;-63
2022/10/04 01:36:30;;;;;;;20.23;6.72;;;;;;;;;;633445;23;894;-62
2022/10/04 01:36:46;;;;;;;16.70;6.53;;;;;;;;;;632947;23;1006;-63
2022/10/04 01:37:02;;;;;;;9.35;6.30;;;;;;;;;;636298;23;855;-62
2022/10/04 01:37:18;;;;;;;10.10;6.15;;;;;;;;;;635886;23;1040;-63
2022/10/04 01:37:33;;;;;;;8.93;5.93;;;;;;;;;;636845;23;1223;-62
2022/10/04 01:37:48;;;;;;;9.48;6.03;;;;;;;;;;636788;23;1001;-62
2022/10/04 01:38:08;;;;;;;12.93;6.20;;;;;;;;;;633459;23;875;-62
2022/10/04 01:38:23;;;;;;;12.25;6.10;;;;;;;;;;630988;23;1331;-62
2022/10/04 01:38:38;;;;;;;13.30;6.33;;;;;;;;;;627368;23;1283;-62
2022/10/04 01:38:54;;;;;;;16.13;6.60;;;;;;;;;;627305;23;993;-62
2022/10/04 01:39:10;;;;;;;30.15;6.88;;;;;;;;;;626310;23;1302;-62
2022/10/04 01:39:26;;;;;;;39.33;7.05;;;;;;;;;;629356;23;1016;-62
2022/10/04 01:39:42;;;;;;;20.98;6.63;;;;;;;;;;631073;23;1038;-62
2022/10/04 01:39:58;;;;;;;15.75;6.45;;;;;;;;;;631990;23;1004;-62
2022/10/04 01:40:13;;;;;;;20.70;6.40;;;;;;;;;;630811;23;1144;-62
2022/10/04 01:40:30;;;;;;;15.57;6.40;;;;;;;;;;634212;23;979;-63
2022/10/04 01:40:53;;;;;;;11.02;6.20;;;;;;;;;;636644;23;956;-65
2022/10/04 01:41:09;;;;;;;10.07;6.20;;;;;;;;;;634219;23;922;-63
2022/10/04 01:41:46;;;;;;;11.45;6.40;;;;;;;;;;634072;23;946;-63
2022/10/04 01:42:08;;;;;;;35.15;6.80;;;;;;;;;;634493;23;1956;-63
2022/10/04 01:42:31;;;;;;;23.88;6.40;;;;;;;;;;637135;23;885;-62
2022/10/04 01:42:51;;;;;;;20.42;6.88;;;;;;;;;;636708;23;1366;-63
2022/10/04 01:43:10;;;;;;;11.55;6.82;;;;;;;;;;637132;23;937;-63
2022/10/04 01:43:31;;;;;;;11.65;7.38;;;;;;;;;;637127;23;950;-63
2022/10/04 01:43:53;;;;;;;11.38;7.25;;;;;;;;;;636124;23;1150;-62
2022/10/04 01:44:16;;;;;;;11.02;7.00;;;;;;;;;;636556;23;827;-63
2022/10/04 01:44:43;;;;;;;7.97;6.82;;;;;;;;;;636531;23;1353;-63
2022/10/04 01:45:03;;;;;;;10.30;6.95;;;;;;;;;;633770;23;875;-62
2022/10/04 01:45:50;;;;;;;9.48;6.70;;;;;;;;;;630512;23;1061;-63
2022/10/04 01:46:10;;;;;;;7.38;6.30;;;;;;;;;;630112;23;1163;-63
2022/10/04 01:46:30;;;;;;;16.60;6.57;;;;;;;;;;632360;23;919;-62
2022/10/04 01:46:48;;;;;;;31.42;7.38;;;;;;;;;;630484;23;998;-62
2022/10/04 01:47:13;;;;;;;40.10;7.35;;;;;;;;;;633716;23;1404;-62
2022/10/04 01:47:48;;;;;;;31.77;7.20;;;;;;;;;;636764;23;973;-63
2022/10/04 01:48:11;;;;;;;41.05;6.82;;;;;;;;;;636139;23;1446;-62
2022/10/04 01:48:34;;;;;;;27.40;7.03;;;;;;;;;;636950;23;986;-62
2022/10/04 01:48:53;;;;;;;20.10;6.82;;;;;;;;;;633835;23;2149;-62
2022/10/04 01:49:16;;;;;;;20.73;7.28;;;;;;;;;;633324;23;1022;-62
2022/10/04 01:49:35;;;;;;;10.73;6.60;;;;;;;;;;633870;23;1017;-62
2022/10/04 01:49:52;;;;;;;13.23;6.57;;;;;;;;;;632911;23;1014;-62
2022/10/04 01:50:14;;;;;;;14.13;6.80;;;;;;;;;;633853;23;868;-62
2022/10/04 01:50:38;;;;;;;20.95;7.22;;;;;;;;;;630896;23;1299;-63
2022/10/04 01:51:03;;;;;;;36.10;7.80;;;;;;;;;;632969;23;1049;-62
2022/10/04 01:51:23;;;;;;;29.95;7.32;;;;;;;;;;632808;23;891;-62
2022/10/04 01:51:55;;;;;;;28.98;7.50;;;;;;;;;;630566;23;1215;-62
2022/10/04 01:52:31;;;;;;;16.05;7.45;;;;;;;;;;630807;23;1305;-63
2022/10/04 01:52:52;;;;;;;18.25;7.40;;;;;;;;;;632629;23;1295;-63
2022/10/04 01:53:13;;;;;;;19.52;7.40;;;;;;;;;;633312;23;1397;-62
2022/10/04 01:53:33;;;;;;;18.38;7.38;;;;;;;;;;634654;23;1259;-62
2022/10/04 01:54:12;;;;;;;20.70;7.40;;;;;;;;;;635219;23;971;-63
2022/10/04 01:54:33;;;;;;;8.32;6.72;;;;;;;;;;632139;23;1478;-63
2022/10/04 01:54:58;;;;;;;15.20;7.25;;;;;;;;;;630707;23;911;-62
2022/10/04 01:55:22;;;;;;;20.38;8.15;;;;;;;;;;627455;23;918;-62
2022/10/04 01:55:41;;;;;;;19.65;8.07;;;;;;;;;;630556;23;891;-63
2022/10/04 01:56:06;;;;;;;22.00;8.30;;;;;;;;;;630667;23;878;-63
2022/10/04 01:56:29;;;;;;;14.93;7.82;;;;;;;;;;631311;23;1065;-62
2022/10/04 01:57:25;;;;;;;11.50;7.55;;;;;;;;;;631838;23;1342;-62
2022/10/04 01:57:51;;;;;;;13.90;7.20;;;;;;;;;;627863;23;1505;-63
2022/10/04 01:58:12;;;;;;;17.08;7.20;;;;;;;;;;627961;23;1030;-62
2022/10/04 01:58:32;;;;;;;17.75;7.25;;;;;;;;;;627384;23;940;-62
2022/10/04 01:58:52;;;;;;;22.10;7.90;;;;;;;;;;636432;23;1243;-62
2022/10/04 01:59:15;;;;;;;10.63;7.18;;;;;;;;;;638676;23;843;-61
2022/10/04 01:59:38;;;;;;;11.90;7.40;;;;;;;;;;636596;23;1179;-62
2022/10/04 02:00:05;;;;;;;14.23;7.30;;;;;;;;;;632571;23;1192;-62
2022/10/04 02:00:23;;;;;;;15.75;7.93;;;;;;;;;;634234;23;1047;-62
2022/10/04 02:00:45;;;;;;;11.38;7.47;;;;;;;;;;632745;23;1069;-62
2022/10/04 02:01:12;;;;;;;13.75;7.85;;;;;;;;;;633626;23;1061;-62
2022/10/04 02:01:49;;;;;;;9.55;7.80;;;;;;;;;;634978;23;986;-62
2022/10/04 02:02:34;;;;;;;11.77;7.82;;;;;;;;;;637081;23;1938;-62
2022/10/04 02:02:52;;;;;;;13.10;8.05;;;;;;;;;;630793;23;1243;-62
2022/10/04 02:03:16;;;;;;;17.77;7.95;;;;;;;;;;627600;23;1316;-62
2022/10/04 02:03:37;;;;;;;14.68;8.13;;;;;;;;;;630056;23;1201;-63
2022/10/04 02:04:04;;;;;;;14.10;8.13;;;;;;;;;;633208;23;1018;-62
2022/10/04 02:04:26;;;;;;;16.75;8.05;;;;;;;;;;629562;23;2133;-63
2022/10/04 02:04:43;;;;;;;14.95;7.78;;;;;;;;;;629234;23;1096;-62
2022/10/04 02:05:00;;;;;;;10.60;7.72;;;;;;;;;;631699;23;983;-62
2022/10/04 02:05:25;;;;;;;13.45;7.68;;;;;;;;;;633936;23;1596;-62
2022/10/04 02:05:48;;;;;;;16.40;8.40;;;;;;;;;;633842;23;1265;-64
2022/10/04 02:06:06;;;;;;;16.83;8.25;;;;;;;;;;634007;23;978;-63
2022/10/04 02:06:23;;;;;;;15.77;8.00;;;;;;;;;;635586;23;1179;-62
2022/10/04 02:06:41;;;;;;;15.55;7.97;;;;;;;;;;637593;23;849;-63
2022/10/04 02:06:59;;;;;;;18.15;7.80;;;;;;;;;;637301;23;846;-63
2022/10/04 02:07:15;;;;;;;19.52;8.02;;;;;;;;;;636053;23;964;-62
2022/10/04 02:07:32;;;;;;;21.20;8.15;;;;;;;;;;637317;23;961;-62
2022/10/04 02:07:49;;;;;;;20.92;8.55;;;;;;;;;;636764;23;910;-62
2022/10/04 02:08:11;;;;;;;14.45;8.35;;;;;;;;;;635243;23;1042;-63
2022/10/04 02:08:29;;;;;;;12.20;7.85;;;;;;;;;;637575;23;1037;-63
2022/10/04 02:08:48;;;;;;;12.52;8.25;;;;;;;;;;637137;23;943;-62
2022/10/04 02:09:13;;;;;;;13.05;8.40;;;;;;;;;;637195;23;889;-62
2022/10/04 02:09:33;;;;;;;15.02;7.70;;;;;;;;;;637356;23;1907;-62
2022/10/04 02:09:54;;;;;;;15.20;7.75;;;;;;;;;;636566;23;1314;-62
2022/10/04 02:10:17;;;;;;;15.25;7.70;;;;;;;;;;636051;23;890;-62
2022/10/04 02:10:35;;;;;;;9.73;7.45;;;;;;;;;;633776;23;1473;-62
2022/10/04 02:10:53;;;;;;;9.65;7.57;;;;;;;;;;632738;23;862;-63
2022/10/04 02:11:09;;;;;;;10.43;7.70;;;;;;;;;;634280;23;914;-62
2022/10/04 02:11:29;;;;;;;10.23;7.50;;;;;;;;;;632979;23;1017;-63
2022/10/04 02:11:51;;;;;;;8.55;7.30;;;;;;;;;;633715;23;901;-62
2022/10/04 02:12:08;;;;;;;8.32;7.00;;;;;;;;;;629394;23;1247;-62
2022/10/04 02:12:25;;;;;;;13.60;7.00;;;;;;;;;;631981;23;934;-62
2022/10/04 02:12:47;;;;;;;13.38;7.20;;;;;;;;;;633065;23;969;-63
2022/10/04 02:13:07;;;;;;;9.98;7.10;;;;;;;;;;633885;23;843;-63
2022/10/04 02:13:28;;;;;;;9.65;7.10;;;;;;;;;;633142;23;957;-63
2022/10/04 02:13:46;;;;;;;10.02;7.00;;;;;;;;;;636475;23;865;-62
2022/10/04 02:14:02;;;;;;;8.25;7.20;;;;;;;;;;635949;23;1050;-62
2022/10/04 02:14:21;;;;;;;13.07;7.68;;;;;;;;;;636779;23;1013;-62
2022/10/04 02:14:42;;;;;;;22.30;7.75;;;;;;;;;;637095;23;1185;-62
2022/10/04 02:15:02;;;;;;;16.23;7.40;;;;;;;;;;636129;23;909;-62
2022/10/04 02:15:19;;;;;;;11.23;7.35;;;;;;;;;;635953;23;913;-63
2022/10/04 02:15:38;;;;;;;13.95;6.85;;;;;;;;;;636143;23;1087;-62
2022/10/04 02:15:54;;;;;;;10.63;6.75;;;;;;;;;;636656;23;1000;-62
2022/10/04 02:16:10;;;;;;;10.70;7.03;;;;;;;;;;634526;23;1284;-63
2022/10/04 02:16:26;;;;;;;11.50;6.60;;;;;;;;;;635626;23;940;-62
2022/10/04 02:16:45;;;;;;;7.63;6.20;;;;;;;;;;636421;23;869;-62
2022/10/04 02:17:06;;;;;;;8.00;6.25;;;;;;;;;;632820;23;879;-62
2022/10/04 02:17:27;;;;;;;13.82;6.60;;;;;;;;;;633895;23;985;-62
2022/10/04 02:17:43;;;;;;;20.55;7.20;;;;;;;;;;633940;23;879;-62
2022/10/04 02:17:58;;;;;;;18.80;7.20;;;;;;;;;;633942;23;930;-62
2022/10/04 02:18:17;;;;;;;11.07;6.70;;;;;;;;;;636893;23;861;-63
2022/10/04 02:18:36;;;;;;;8.52;6.53;;;;;;;;;;636697;23;985;-63
2022/10/04 02:18:53;;;;;;;9.02;6.47;;;;;;;;;;637051;23;856;-63
2022/10/04 02:19:10;;;;;;;13.13;6.50;;;;;;;;;;634840;23;1048;-62
2022/10/04 02:19:32;;;;;;;11.45;6.53;;;;;;;;;;637625;23;1033;-62
2022/10/04 02:19:49;;;;;;;6.72;6.03;;;;;;;;;;637166;23;1070;-62
2022/10/04 02:20:12;;;;;;;7.70;5.95;;;;;;;;;;637134;23;886;-63
2022/10/04 02:20:27;;;;;;;10.18;5.93;;;;;;;;;;637340;23;820;-63
2022/10/04 02:20:44;;;;;;;15.10;6.32;;;;;;;;;;636876;23;928;-62
2022/10/04 02:21:00;;;;;;;15.27;6.20;;;;;;;;;;636787;23;1263;-62
2022/10/04 02:21:16;;;;;;;11.70;6.00;;;;;;;;;;634798;23;1298;-62